createdAt,value
2018-11-11T00:00:11.863Z,12.80
2018-11-11T00:02:40.906Z,13.22
2018-11-11T00:05:10.790Z,13.22
2018-11-11T00:07:40.018Z,14.13
2018-11-11T00:10:09.015Z,12.43
2018-11-11T00:12:38.470Z,14.03
2018-11-11T00:15:09.495Z,12.65
2018-11-11T00:17:38.492Z,11.55
2018-11-11T00:20:08.320Z,12.70
2018-11-11T00:22:37.806Z,13.90
2018-11-11T00:25:07.367Z,12.93
2018-11-11T00:27:42.486Z,13.88
2018-11-11T00:30:13.982Z,14.90
2018-11-11T00:32:43.126Z,14.83
2018-11-11T00:35:12.191Z,13.25
2018-11-11T00:37:41.602Z,15.48
2018-11-11T00:40:11.865Z,13.58
2018-11-11T00:42:40.801Z,12.05
2018-11-11T00:45:10.092Z,12.88
2018-11-11T00:47:39.102Z,13.15
2018-11-11T00:50:09.299Z,13.78
2018-11-11T00:52:38.347Z,13.90
2018-11-11T00:55:09.519Z,14.03
2018-11-11T00:57:38.414Z,15.90
2018-11-11T01:00:11.552Z,13.48
2018-11-11T01:02:40.942Z,13.62
2018-11-11T01:05:10.913Z,13.45
2018-11-11T01:07:40.738Z,15.13
2018-11-11T01:10:11.557Z,15.70
2018-11-11T01:12:41.526Z,16.02
2018-11-11T01:15:12.148Z,15.68
2018-11-11T01:17:41.126Z,18.07
2018-11-11T01:20:12.002Z,15.98
2018-11-11T01:22:41.062Z,16.55
2018-11-11T01:25:12.076Z,16.70
2018-11-11T01:27:41.090Z,17.70
2018-11-11T01:30:10.078Z,16.57
2018-11-11T01:32:39.414Z,17.32
2018-11-11T01:35:11.167Z,15.58
2018-11-11T01:37:40.727Z,16.95
2018-11-11T01:40:09.690Z,16.48
2018-11-11T01:42:38.727Z,14.58
2018-11-11T01:45:12.072Z,16.50
2018-11-11T01:47:41.157Z,16.45
2018-11-11T01:50:10.995Z,15.68
2018-11-11T01:52:40.398Z,17.67
2018-11-11T01:55:10.332Z,19.37
2018-11-11T01:57:39.629Z,16.75
2018-11-11T02:00:10.742Z,14.80
2018-11-11T02:02:39.770Z,16.15
2018-11-11T02:05:10.194Z,17.05
2018-11-11T02:07:39.322Z,17.87
2018-11-11T02:10:09.339Z,16.10
2018-11-11T02:12:39.606Z,16.20
2018-11-11T02:15:09.823Z,17.55
2018-11-11T02:17:38.727Z,16.85
2018-11-11T02:20:09.570Z,15.83
2018-11-11T02:22:38.538Z,16.80
2018-11-11T02:25:07.885Z,16.82
2018-11-11T02:27:36.843Z,17.27
2018-11-11T02:30:07.962Z,17.40
2018-11-11T02:32:36.951Z,16.82
2018-11-11T02:35:06.523Z,15.50
2018-11-11T02:37:35.832Z,17.62
2018-11-11T02:40:06.496Z,14.95
2018-11-11T02:42:35.599Z,16.97
2018-11-11T02:45:05.331Z,17.52
2018-11-11T02:47:34.339Z,17.15
2018-11-11T02:50:03.534Z,15.90
2018-11-11T02:52:32.460Z,17.48
2018-11-11T02:55:01.409Z,17.45
2018-11-11T02:57:30.313Z,15.20
2018-11-11T02:59:59.222Z,15.48
2018-11-11T03:02:28.194Z,15.15
2018-11-11T03:04:57.237Z,16.40
2018-11-11T03:07:26.538Z,15.85
2018-11-11T03:09:55.615Z,15.63
2018-11-11T03:12:24.577Z,16.48
2018-11-11T03:14:53.554Z,18.32
2018-11-11T03:17:22.514Z,15.03
2018-11-11T03:19:51.447Z,17.05
2018-11-11T03:22:20.346Z,16.77
2018-11-11T03:24:49.307Z,16.85
2018-11-11T03:27:18.274Z,15.05
2018-11-11T03:29:47.195Z,15.20
2018-11-11T03:32:16.225Z,15.18
2018-11-11T03:34:45.278Z,14.78
2018-11-11T03:37:14.267Z,15.98
2018-11-11T03:39:43.206Z,14.00
2018-11-11T03:42:12.148Z,17.45
2018-11-11T03:44:41.039Z,13.95
2018-11-11T03:47:10.014Z,14.95
2018-11-11T03:49:38.961Z,16.57
2018-11-11T03:52:07.961Z,15.90
2018-11-11T03:54:36.959Z,16.10
2018-11-11T03:57:06.017Z,15.32
2018-11-11T03:59:35.101Z,14.73
2018-11-11T04:02:04.135Z,16.73
2018-11-11T04:04:33.057Z,17.37
2018-11-11T04:07:01.999Z,17.42
2018-11-11T04:09:30.926Z,16.25
2018-11-11T04:11:59.879Z,19.02
2018-11-11T04:14:28.790Z,17.32
2018-11-11T04:16:57.814Z,18.25
2018-11-11T04:19:26.859Z,16.17
2018-11-11T04:21:55.951Z,16.62
2018-11-11T04:24:24.934Z,19.30
2018-11-11T04:26:53.870Z,18.42
2018-11-11T04:29:22.807Z,19.25
2018-11-11T04:31:51.758Z,21.05
2018-11-11T04:34:20.638Z,18.77
2018-11-11T04:36:49.732Z,19.60
2018-11-11T04:39:18.697Z,20.17
2018-11-11T04:41:47.930Z,18.05
2018-11-11T04:44:17.090Z,19.85
2018-11-11T04:46:46.052Z,18.17
2018-11-11T04:49:15.125Z,19.50
2018-11-11T04:51:44.103Z,17.60
2018-11-11T04:54:13.002Z,17.62
2018-11-11T04:56:41.925Z,18.73
2018-11-11T04:59:10.945Z,19.48
2018-11-11T05:01:39.921Z,21.07
2018-11-11T05:04:08.835Z,19.62
2018-11-11T05:06:37.862Z,19.32
2018-11-11T05:09:09.590Z,18.77
2018-11-11T05:11:38.810Z,19.65
2018-11-11T05:14:07.843Z,17.50
2018-11-11T05:16:36.793Z,16.70
2018-11-11T05:19:06.939Z,19.20
2018-11-11T05:21:35.880Z,18.98
2018-11-11T05:24:05.212Z,19.30
2018-11-11T05:26:34.423Z,18.00
2018-11-11T05:29:03.807Z,19.82
2018-11-11T05:31:32.719Z,19.50
2018-11-11T05:34:01.707Z,19.23
2018-11-11T05:36:30.777Z,20.02
2018-11-11T05:38:59.685Z,19.23
2018-11-11T05:41:28.791Z,19.75
2018-11-11T05:43:57.725Z,16.55
2018-11-11T05:46:26.686Z,16.35
2018-11-11T05:48:55.651Z,17.57
2018-11-11T05:51:24.650Z,17.60
2018-11-11T05:53:53.618Z,19.77
2018-11-11T05:56:22.580Z,17.48
2018-11-11T05:58:51.638Z,17.10
2018-11-11T06:01:20.682Z,19.07
2018-11-11T06:03:49.685Z,17.42
2018-11-11T06:06:18.686Z,17.35
2018-11-11T06:08:47.902Z,18.42
2018-11-11T06:11:16.901Z,17.25
2018-11-11T06:13:45.868Z,16.95
2018-11-11T06:16:14.810Z,15.93
2018-11-11T06:18:43.747Z,15.83
2018-11-11T06:21:12.798Z,17.50
2018-11-11T06:23:41.710Z,17.67
2018-11-11T06:26:10.607Z,18.05
2018-11-11T06:28:39.646Z,17.00
2018-11-11T06:31:08.826Z,16.48
2018-11-11T06:33:37.884Z,17.30
2018-11-11T06:36:06.847Z,17.20
2018-11-11T06:38:35.804Z,19.52
2018-11-11T06:41:04.926Z,18.40
2018-11-11T06:43:33.866Z,16.82
2018-11-11T06:46:02.814Z,19.50
2018-11-11T06:48:31.768Z,17.42
2018-11-11T06:51:00.661Z,17.42
2018-11-11T06:53:29.638Z,18.05
2018-11-11T06:55:58.719Z,16.17
2018-11-11T06:58:27.687Z,17.32
2018-11-11T07:00:56.610Z,16.80
2018-11-11T07:03:37.025Z,16.82
2018-11-11T07:06:06.318Z,18.67
2018-11-11T07:08:35.246Z,18.23
2018-11-11T07:11:04.224Z,17.60
2018-11-11T07:13:33.171Z,19.32
2018-11-11T07:16:02.102Z,19.75
2018-11-11T07:18:31.046Z,20.10
2018-11-11T07:21:00.211Z,17.90
2018-11-11T07:23:29.241Z,18.57
2018-11-11T07:25:58.277Z,20.02
2018-11-11T07:28:27.254Z,17.85
2018-11-11T07:30:56.290Z,20.82
2018-11-11T07:33:25.483Z,18.67
2018-11-11T07:35:54.421Z,18.45
2018-11-11T07:38:23.291Z,20.15
2018-11-11T07:40:52.303Z,17.80
2018-11-11T07:43:21.310Z,19.90
2018-11-11T07:45:50.694Z,17.00
2018-11-11T07:48:20.038Z,18.75
2018-11-11T07:50:49.110Z,16.82
2018-11-11T07:53:18.262Z,19.15
2018-11-11T07:55:47.194Z,19.25
2018-11-11T07:58:16.162Z,17.82
2018-11-11T08:00:45.059Z,17.27
2018-11-11T08:03:14.094Z,19.32
2018-11-11T08:05:42.995Z,19.65
2018-11-11T08:08:11.940Z,19.07
2018-11-11T08:10:52.114Z,18.32
2018-11-11T08:13:21.115Z,18.60
2018-11-11T08:15:50.286Z,18.98
2018-11-11T08:18:19.278Z,21.42
2018-11-11T08:20:48.311Z,19.20
2018-11-11T08:23:17.253Z,14.90
2018-11-11T08:25:46.179Z,18.98
2018-11-11T08:28:15.150Z,17.32
2018-11-11T08:30:44.111Z,15.78
2018-11-11T08:33:13.024Z,15.90
2018-11-11T08:35:42.087Z,15.85
2018-11-11T08:38:11.042Z,15.50
2018-11-11T08:40:39.990Z,16.45
2018-11-11T08:43:08.840Z,15.13
2018-11-11T08:45:37.782Z,16.73
2018-11-11T08:48:06.826Z,15.95
2018-11-11T08:50:35.786Z,16.45
2018-11-11T08:53:04.703Z,17.80
2018-11-11T08:55:33.592Z,14.93
2018-11-11T08:58:02.548Z,15.65
2018-11-11T09:00:31.377Z,14.90
2018-11-11T09:03:00.371Z,15.35
2018-11-11T09:05:29.278Z,16.42
2018-11-11T09:07:58.206Z,15.00
2018-11-11T09:10:27.215Z,13.90
2018-11-11T09:12:56.386Z,15.03
2018-11-11T09:15:25.542Z,13.78
2018-11-11T09:17:54.473Z,14.93
2018-11-11T09:20:23.379Z,15.43
2018-11-11T09:22:52.471Z,13.65
2018-11-11T09:25:21.481Z,12.80
2018-11-11T09:27:50.361Z,14.15
2018-11-11T09:30:19.431Z,13.98
2018-11-11T09:32:48.376Z,12.25
2018-11-11T09:35:17.278Z,11.03
2018-11-11T09:37:46.310Z,11.68
2018-11-11T09:40:16.443Z,11.65
2018-11-11T09:42:45.398Z,11.20
2018-11-11T09:45:15.493Z,10.40
2018-11-11T09:47:46.923Z,11.10
2018-11-11T09:50:16.767Z,10.55
2018-11-11T09:52:45.767Z,11.15
2018-11-11T09:55:15.160Z,10.20
2018-11-11T09:57:44.145Z,10.75
2018-11-11T10:00:16.470Z,10.80
2018-11-11T10:02:50.915Z,11.78
2018-11-11T10:05:25.253Z,10.95
2018-11-11T10:10:03.907Z,10.50
2018-11-11T10:12:36.483Z,10.35
2018-11-11T10:15:13.422Z,10.32
2018-11-11T10:17:51.016Z,10.43
2018-11-11T10:20:28.146Z,8.83
2018-11-11T10:23:03.645Z,9.88
2018-11-11T10:26:08.376Z,9.08
2018-11-11T10:28:41.270Z,8.60
2018-11-11T10:31:45.788Z,10.48
2018-11-11T10:34:23.137Z,8.75
2018-11-11T10:37:55.150Z,9.70
2018-11-11T10:40:42.666Z,9.10
2018-11-11T10:43:25.786Z,8.73
2018-11-11T10:45:59.973Z,8.33
2018-11-11T10:48:32.333Z,8.33
2018-11-11T10:51:02.859Z,8.65
2018-11-11T10:53:31.807Z,8.03
2018-11-11T10:56:00.722Z,8.90
2018-11-11T10:58:29.730Z,7.58
2018-11-11T11:01:03.967Z,8.40
2018-11-11T11:03:34.270Z,8.30
2018-11-11T11:06:04.021Z,7.12
2018-11-11T11:08:33.130Z,8.08
2018-11-11T11:11:02.046Z,6.65
2018-11-11T11:13:31.143Z,7.28
2018-11-11T11:16:00.138Z,7.22
2018-11-11T11:18:29.135Z,7.80
2018-11-11T11:20:58.138Z,7.75
2018-11-11T11:23:27.086Z,7.03
2018-11-11T11:25:56.049Z,7.53
2018-11-11T11:28:25.282Z,6.30
2018-11-11T11:30:54.184Z,7.55
2018-11-11T11:33:23.171Z,6.20
2018-11-11T11:35:52.152Z,6.33
2018-11-11T11:38:21.039Z,6.22
2018-11-11T11:40:49.931Z,6.87
2018-11-11T11:43:18.854Z,6.65
2018-11-11T11:45:47.746Z,7.10
2018-11-11T11:48:16.654Z,6.20
2018-11-11T11:50:45.635Z,5.45
2018-11-11T11:53:14.542Z,6.42
2018-11-11T11:55:43.410Z,5.42
2018-11-11T11:58:18.070Z,6.25
2018-11-11T12:00:47.011Z,6.53
2018-11-11T12:03:16.280Z,7.37
2018-11-11T12:05:45.857Z,6.20
2018-11-11T12:08:14.860Z,6.05
2018-11-11T12:10:43.902Z,5.47
2018-11-11T12:13:13.619Z,5.55
2018-11-11T12:15:42.986Z,5.35
2018-11-11T12:18:12.151Z,4.40
2018-11-11T12:20:41.434Z,5.10
2018-11-11T12:23:10.959Z,5.50
2018-11-11T12:25:40.157Z,4.85
2018-11-11T12:28:09.506Z,4.60
2018-11-11T12:30:38.454Z,5.03
2018-11-11T12:33:07.403Z,4.50
2018-11-11T12:35:36.482Z,4.87
2018-11-11T12:38:05.565Z,4.75
2018-11-11T12:40:34.511Z,4.30
2018-11-11T12:43:03.451Z,4.20
2018-11-11T12:45:32.405Z,4.20
2018-11-11T12:48:01.306Z,3.77
2018-11-11T12:50:30.351Z,3.57
2018-11-11T12:52:59.216Z,3.40
2018-11-11T12:55:28.193Z,4.27
2018-11-11T12:57:57.027Z,3.33
2018-11-11T13:00:25.942Z,3.63
2018-11-11T13:02:54.826Z,4.47
2018-11-11T13:05:23.736Z,3.65
2018-11-11T13:07:52.706Z,4.37
2018-11-11T13:10:21.660Z,4.70
2018-11-11T13:12:50.663Z,3.80
2018-11-11T13:15:19.647Z,4.03
2018-11-11T13:17:48.579Z,4.13
2018-11-11T13:20:18.719Z,3.50
2018-11-11T13:22:47.877Z,3.25
2018-11-11T13:25:16.634Z,3.60
2018-11-11T13:27:45.582Z,3.55
2018-11-11T13:30:15.137Z,3.30
2018-11-11T13:32:44.178Z,3.70
2018-11-11T13:35:14.505Z,3.70
2018-11-11T13:37:43.781Z,3.60
2018-11-11T13:40:18.034Z,3.87
2018-11-11T13:42:46.957Z,3.70
2018-11-11T13:45:17.756Z,4.15
2018-11-11T13:47:47.560Z,4.90
2018-11-11T13:50:19.745Z,5.03
2018-11-11T13:52:48.766Z,4.10
2018-11-11T13:55:18.186Z,4.40
2018-11-11T13:57:47.543Z,4.40
2018-11-11T14:00:20.794Z,5.33
2018-11-11T14:02:49.839Z,4.70
2018-11-11T14:05:18.768Z,4.90
2018-11-11T14:07:47.675Z,4.70
2018-11-11T14:10:16.970Z,3.80
2018-11-11T14:12:45.910Z,4.80
2018-11-11T14:15:17.136Z,4.25
2018-11-11T14:17:46.574Z,5.35
2018-11-11T14:20:16.812Z,4.92
2018-11-11T14:22:46.733Z,5.20
2018-11-11T14:25:19.403Z,5.25
2018-11-11T14:27:48.246Z,4.70
2018-11-11T14:30:19.774Z,5.65
2018-11-11T14:32:49.506Z,6.25
2018-11-11T14:35:18.463Z,5.10
2018-11-11T14:37:47.723Z,5.45
2018-11-11T14:40:18.714Z,6.10
2018-11-11T14:42:47.709Z,6.28
2018-11-11T14:45:17.606Z,5.85
2018-11-11T14:47:47.757Z,6.40
2018-11-11T14:50:17.473Z,6.42
2018-11-11T14:52:46.913Z,6.90
2018-11-11T14:55:18.805Z,6.70
2018-11-11T14:57:47.725Z,6.70
2018-11-11T15:00:25.274Z,6.83
2018-11-11T15:03:02.518Z,8.55
2018-11-11T15:05:31.590Z,7.20
2018-11-11T15:08:00.773Z,7.15
2018-11-11T15:10:29.649Z,7.50
2018-11-11T15:12:58.637Z,7.75
2018-11-11T15:15:27.578Z,9.63
2018-11-11T15:17:57.440Z,8.90
2018-11-11T15:20:26.412Z,7.50
2018-11-11T15:22:55.277Z,8.25
2018-11-11T15:25:25.632Z,9.65
2018-11-11T15:27:54.535Z,8.80
2018-11-11T15:30:32.328Z,10.05
2018-11-11T15:33:01.822Z,9.15
2018-11-11T15:35:30.887Z,9.30
2018-11-11T15:37:59.826Z,9.35
2018-11-11T15:40:32.220Z,10.20
2018-11-11T15:43:01.557Z,9.28
2018-11-11T15:45:31.963Z,9.53
2018-11-11T15:48:01.186Z,10.45
2018-11-11T15:50:31.406Z,9.65
2018-11-11T15:53:01.847Z,9.23
2018-11-11T15:55:31.974Z,9.65
2018-11-11T15:58:00.983Z,10.45
2018-11-11T16:00:32.251Z,9.93
2018-11-11T16:03:01.175Z,9.60
2018-11-11T16:05:30.077Z,9.43
2018-11-11T16:07:59.698Z,10.18
2018-11-11T16:10:30.007Z,9.08
2018-11-11T16:12:58.962Z,10.03
2018-11-11T16:15:31.200Z,9.70
2018-11-11T16:18:03.895Z,9.08
2018-11-11T16:20:33.151Z,9.68
2018-11-11T16:23:03.374Z,9.50
2018-11-11T16:25:32.704Z,9.35
2018-11-11T16:28:01.650Z,10.20
2018-11-11T16:30:32.764Z,9.43
2018-11-11T16:33:01.928Z,9.25
2018-11-11T16:35:31.322Z,9.70
2018-11-11T16:38:00.890Z,10.43
2018-11-11T16:40:32.126Z,9.73
2018-11-11T16:43:01.244Z,10.70
2018-11-11T16:45:31.362Z,9.55
2018-11-11T16:48:00.415Z,10.38
2018-11-11T16:50:30.794Z,12.30
2018-11-11T16:53:01.382Z,11.18
2018-11-11T16:55:31.336Z,11.33
2018-11-11T16:58:00.342Z,11.73
2018-11-11T17:00:30.662Z,11.18
2018-11-11T17:03:00.665Z,10.80
2018-11-11T17:05:30.892Z,11.88
2018-11-11T17:07:59.886Z,15.08
2018-11-11T17:10:30.255Z,13.95
2018-11-11T17:13:00.603Z,15.03
2018-11-11T17:15:30.695Z,14.13
2018-11-11T17:17:59.874Z,14.98
2018-11-11T17:20:29.050Z,14.80
2018-11-11T17:23:00.922Z,15.20
2018-11-11T17:25:31.638Z,13.98
2018-11-11T17:28:00.820Z,14.68
2018-11-11T17:30:31.189Z,14.63
2018-11-11T17:33:05.532Z,16.23
2018-11-11T17:35:38.929Z,15.43
2018-11-11T17:38:08.223Z,13.90
2018-11-11T17:40:38.921Z,13.40
2018-11-11T17:43:08.085Z,13.98
2018-11-11T17:45:37.000Z,13.35
2018-11-11T17:48:06.180Z,13.78
2018-11-11T17:50:35.749Z,14.75
2018-11-11T17:53:05.998Z,15.08
2018-11-11T17:55:34.960Z,13.03
2018-11-11T17:58:05.063Z,14.03
2018-11-11T18:00:33.983Z,13.80
2018-11-11T18:03:04.298Z,13.13
2018-11-11T18:05:33.394Z,13.85
2018-11-11T18:08:05.983Z,14.03
2018-11-11T18:10:35.456Z,12.47
2018-11-11T18:13:04.382Z,14.05
2018-11-11T18:15:33.483Z,13.65
2018-11-11T18:18:03.233Z,12.93
2018-11-11T18:20:33.283Z,12.13
2018-11-11T18:23:03.536Z,11.43
2018-11-11T18:25:32.457Z,12.13
2018-11-11T18:28:01.579Z,11.30
2018-11-11T18:30:34.514Z,13.50
2018-11-11T18:33:03.435Z,12.40
2018-11-11T18:35:38.390Z,13.45
2018-11-11T18:38:09.451Z,13.88
2018-11-11T18:40:38.427Z,12.33
2018-11-11T18:43:07.574Z,11.93
2018-11-11T18:45:36.620Z,13.03
2018-11-11T18:48:07.169Z,13.60
2018-11-11T18:50:37.405Z,12.98
2018-11-11T18:53:06.639Z,12.20
2018-11-11T18:55:35.583Z,11.97
2018-11-11T18:58:04.850Z,14.68
2018-11-11T19:00:34.655Z,13.00
2018-11-11T19:03:03.891Z,15.32
2018-11-11T19:05:36.893Z,12.20
2018-11-11T19:08:06.127Z,12.78
2018-11-11T19:10:35.107Z,12.40
2018-11-11T19:13:05.472Z,11.57
2018-11-11T19:15:34.376Z,12.25
2018-11-11T19:18:04.661Z,11.80
2018-11-11T19:20:35.952Z,13.20
2018-11-11T19:23:05.305Z,12.70
2018-11-11T19:25:34.203Z,11.78
2018-11-11T19:28:04.619Z,13.43
2018-11-11T19:30:36.898Z,14.33
2018-11-11T19:33:05.987Z,13.18
2018-11-11T19:35:37.224Z,13.98
2018-11-11T19:38:06.195Z,12.25
2018-11-11T19:40:35.243Z,11.97
2018-11-11T19:43:07.133Z,11.83
2018-11-11T19:45:36.256Z,12.50
2018-11-11T19:48:05.852Z,13.98
2018-11-11T19:50:35.342Z,12.23
2018-11-11T19:53:04.718Z,13.65
2018-11-11T19:55:34.011Z,13.28
2018-11-11T19:58:04.362Z,13.43
2018-11-11T20:00:34.324Z,13.65
2018-11-11T20:03:04.788Z,13.53
2018-11-11T20:05:34.116Z,14.00
2018-11-11T20:08:03.539Z,14.58
2018-11-11T20:10:33.124Z,12.78
2018-11-11T20:13:03.651Z,12.85
2018-11-11T20:15:33.909Z,13.20
2018-11-11T20:18:02.943Z,12.98
2018-11-11T20:20:33.471Z,12.60
2018-11-11T20:23:02.571Z,12.80
2018-11-11T20:25:38.003Z,12.82
2018-11-11T20:28:08.030Z,14.33
2018-11-11T20:30:38.845Z,14.65
2018-11-11T20:33:08.071Z,13.88
2018-11-11T20:35:37.133Z,13.40
2018-11-11T20:38:07.099Z,12.90
2018-11-11T20:40:36.305Z,13.05
2018-11-11T20:43:05.782Z,13.18
2018-11-11T20:45:36.016Z,13.68
2018-11-11T20:48:05.435Z,13.03
2018-11-11T20:50:36.618Z,14.60
2018-11-11T20:53:06.545Z,12.70
2018-11-11T20:55:38.842Z,13.50
2018-11-11T20:58:08.768Z,11.75
2018-11-11T21:00:39.247Z,14.03
2018-11-11T21:03:08.787Z,14.68
2018-11-11T21:05:44.373Z,13.25
2018-11-11T21:08:13.398Z,15.15
2018-11-11T21:10:42.591Z,13.13
2018-11-11T21:13:11.519Z,14.98
2018-11-11T21:15:40.629Z,15.08
2018-11-11T21:18:09.579Z,12.50
2018-11-11T21:20:38.646Z,12.40
2018-11-11T21:23:08.127Z,13.65
2018-11-11T21:25:37.224Z,11.88
2018-11-11T21:28:06.175Z,13.38
2018-11-11T21:30:35.122Z,12.37
2018-11-11T21:33:05.690Z,13.30
2018-11-11T21:35:38.844Z,14.50
2018-11-11T21:38:07.787Z,14.23
2018-11-11T21:40:37.381Z,13.25
2018-11-11T21:43:06.558Z,12.95
2018-11-11T21:45:35.544Z,12.75
2018-11-11T21:48:05.812Z,13.35
2018-11-11T21:50:36.246Z,11.22
2018-11-11T21:53:24.405Z,14.80
2018-11-11T21:55:56.490Z,12.28
2018-11-11T21:58:26.776Z,11.28
2018-11-11T22:00:56.050Z,12.95
2018-11-11T22:03:25.446Z,11.73
2018-11-11T22:05:54.678Z,12.33
2018-11-11T22:08:24.361Z,12.55
2018-11-11T22:10:53.885Z,13.05
2018-11-11T22:13:23.677Z,12.95
2018-11-11T22:15:53.033Z,12.85
2018-11-11T22:18:22.018Z,11.57
2018-11-11T22:20:50.975Z,10.53
2018-11-11T22:23:19.875Z,13.62
2018-11-11T22:25:48.800Z,13.35
2018-11-11T22:28:17.718Z,13.70
2018-11-11T22:30:46.694Z,13.15
2018-11-11T22:33:15.633Z,13.18
2018-11-11T22:35:44.613Z,11.70
2018-11-11T22:38:13.587Z,13.05
2018-11-11T22:40:42.551Z,12.50
2018-11-11T22:43:11.490Z,12.50
2018-11-11T22:45:40.482Z,12.88
2018-11-11T22:48:09.503Z,13.00
2018-11-11T22:50:38.611Z,11.60
2018-11-11T22:53:07.563Z,11.18
2018-11-11T22:55:36.560Z,12.03
2018-11-11T22:58:05.823Z,11.60
2018-11-11T23:00:34.881Z,12.03
2018-11-11T23:03:03.863Z,10.93
2018-11-11T23:05:32.799Z,10.93
2018-11-11T23:08:01.723Z,12.35
2018-11-11T23:10:30.830Z,12.40
2018-11-11T23:12:59.779Z,11.15
2018-11-11T23:15:28.754Z,12.28
2018-11-11T23:17:57.694Z,12.45
2018-11-11T23:20:27.352Z,12.80
2018-11-11T23:22:56.382Z,12.33
2018-11-11T23:25:25.701Z,12.28
2018-11-11T23:27:54.879Z,12.70
2018-11-11T23:30:24.078Z,13.70
2018-11-11T23:32:53.066Z,12.15
2018-11-11T23:35:22.182Z,12.65
2018-11-11T23:37:51.229Z,12.85
2018-11-11T23:40:20.170Z,11.00
2018-11-11T23:42:49.141Z,10.05
2018-11-11T23:45:18.172Z,10.10
2018-11-11T23:47:47.111Z,11.80
2018-11-11T23:50:17.423Z,10.63
2018-11-11T23:52:46.798Z,11.93
2018-11-11T23:55:16.847Z,11.20
2018-11-11T23:57:45.896Z,11.33
